sensor_id;sensor_type;location;lat;lon;timestamp;P1;durP1;ratioP1;P2;durP2;ratioP2
12840;SDS011;6487;48.626;12.486;2023-04-01T00:01:11;2.73;;;1.03;;
12840;SDS011;6487;48.626;12.486;2023-04-01T00:03:42;1.90;;;0.80;;
12840;SDS011;6487;48.626;12.486;2023-04-01T00:06:11;0.80;;;0.47;;
12840;SDS011;6487;48.626;12.486;2023-04-01T00:08:42;2.30;;;0.80;;
12840;SDS011;6487;48.626;12.486;2023-04-01T00:11:12;2.67;;;0.60;;
12840;SDS011;6487;48.626;12.486;2023-04-01T00:13:41;3.00;;;1.00;;
12840;SDS011;6487;48.626;12.486;2023-04-01T00:16:10;1.00;;;0.47;;
12840;SDS011;6487;48.626;12.486;2023-04-01T00:18:47;1.17;;;0.50;;
12840;SDS011;6487;48.626;12.486;2023-04-01T00:21:17;2.23;;;0.60;;
12840;SDS011;6487;48.626;12.486;2023-04-01T00:23:48;0.90;;;0.60;;
12840;SDS011;6487;48.626;12.486;2023-04-01T00:26:18;1.60;;;0.60;;
12840;SDS011;6487;48.626;12.486;2023-04-01T00:28:48;3.77;;;0.70;;
12840;SDS011;6487;48.626;12.486;2023-04-01T00:31:17;4.73;;;0.70;;
12840;SDS011;6487;48.626;12.486;2023-04-01T00:33:46;2.77;;;0.87;;
12840;SDS011;6487;48.626;12.486;2023-04-01T00:36:16;1.67;;;0.63;;
12840;SDS011;6487;48.626;12.486;2023-04-01T00:38:46;3.30;;;0.60;;
12840;SDS011;6487;48.626;12.486;2023-04-01T00:41:15;1.43;;;0.70;;
12840;SDS011;6487;48.626;12.486;2023-04-01T00:43:46;1.40;;;0.50;;
12840;SDS011;6487;48.626;12.486;2023-04-01T00:46:17;2.33;;;0.70;;
12840;SDS011;6487;48.626;12.486;2023-04-01T00:48:47;1.83;;;0.80;;
12840;SDS011;6487;48.626;12.486;2023-04-01T00:51:20;0.80;;;0.50;;
12840;SDS011;6487;48.626;12.486;2023-04-01T00:53:53;1.10;;;0.50;;
12840;SDS011;6487;48.626;12.486;2023-04-01T00:56:24;1.10;;;0.60;;
12840;SDS011;6487;48.626;12.486;2023-04-01T00:58:57;1.70;;;0.90;;
12840;SDS011;6487;48.626;12.486;2023-04-01T01:01:30;0.70;;;0.43;;
12840;SDS011;6487;48.626;12.486;2023-04-01T01:03:59;1.53;;;0.33;;
12840;SDS011;6487;48.626;12.486;2023-04-01T01:06:32;1.67;;;0.40;;
12840;SDS011;6487;48.626;12.486;2023-04-01T01:09:11;1.03;;;0.37;;
12840;SDS011;6487;48.626;12.486;2023-04-01T01:11:54;1.13;;;0.67;;
12840;SDS011;6487;48.626;12.486;2023-04-01T01:14:36;1.10;;;0.60;;
12840;SDS011;6487;48.626;12.486;2023-04-01T01:17:19;1.17;;;0.53;;
12840;SDS011;6487;48.626;12.486;2023-04-01T01:20:14;2.27;;;0.43;;
12840;SDS011;6487;48.626;12.486;2023-04-01T01:23:28;1.70;;;0.40;;
12840;SDS011;6487;48.626;12.486;2023-04-01T01:26:40;1.70;;;0.73;;
12840;SDS011;6487;48.626;12.486;2023-04-01T01:29:30;1.27;;;0.50;;
12840;SDS011;6487;48.626;12.486;2023-04-01T01:32:46;2.93;;;0.60;;
12840;SDS011;6487;48.626;12.486;2023-04-01T01:35:40;2.20;;;0.77;;
12840;SDS011;6487;48.626;12.486;2023-04-01T01:38:14;1.20;;;0.70;;
12840;SDS011;6487;48.626;12.486;2023-04-01T01:40:47;0.83;;;0.47;;
12840;SDS011;6487;48.626;12.486;2023-04-01T01:43:21;1.23;;;0.50;;
12840;SDS011;6487;48.626;12.486;2023-04-01T01:45:54;1.70;;;0.60;;
12840;SDS011;6487;48.626;12.486;2023-04-01T01:48:29;3.00;;;0.70;;
12840;SDS011;6487;48.626;12.486;2023-04-01T01:51:00;2.10;;;0.50;;
12840;SDS011;6487;48.626;12.486;2023-04-01T01:53:30;1.67;;;0.57;;
12840;SDS011;6487;48.626;12.486;2023-04-01T01:55:58;2.30;;;0.50;;
12840;SDS011;6487;48.626;12.486;2023-04-01T01:58:27;1.27;;;0.53;;
12840;SDS011;6487;48.626;12.486;2023-04-01T02:01:02;2.20;;;0.90;;
12840;SDS011;6487;48.626;12.486;2023-04-01T02:03:34;2.47;;;0.63;;
12840;SDS011;6487;48.626;12.486;2023-04-01T02:06:07;1.90;;;0.83;;
12840;SDS011;6487;48.626;12.486;2023-04-01T02:08:39;1.57;;;0.60;;
12840;SDS011;6487;48.626;12.486;2023-04-01T02:11:13;1.83;;;0.73;;
12840;SDS011;6487;48.626;12.486;2023-04-01T02:13:47;1.80;;;0.80;;
12840;SDS011;6487;48.626;12.486;2023-04-01T02:16:20;1.80;;;0.57;;
12840;SDS011;6487;48.626;12.486;2023-04-01T02:18:53;2.50;;;0.70;;
12840;SDS011;6487;48.626;12.486;2023-04-01T02:21:28;1.07;;;0.70;;
12840;SDS011;6487;48.626;12.486;2023-04-01T02:24:00;1.50;;;0.60;;
12840;SDS011;6487;48.626;12.486;2023-04-01T02:26:33;2.17;;;0.53;;
12840;SDS011;6487;48.626;12.486;2023-04-01T02:29:02;1.97;;;0.60;;
12840;SDS011;6487;48.626;12.486;2023-04-01T02:31:35;1.07;;;0.60;;
12840;SDS011;6487;48.626;12.486;2023-04-01T02:34:08;2.33;;;0.70;;
12840;SDS011;6487;48.626;12.486;2023-04-01T02:36:38;2.23;;;0.60;;
12840;SDS011;6487;48.626;12.486;2023-04-01T02:39:07;1.33;;;0.70;;
12840;SDS011;6487;48.626;12.486;2023-04-01T02:41:38;2.73;;;0.77;;
12840;SDS011;6487;48.626;12.486;2023-04-01T02:44:07;2.03;;;0.73;;
12840;SDS011;6487;48.626;12.486;2023-04-01T02:46:36;3.27;;;0.57;;
12840;SDS011;6487;48.626;12.486;2023-04-01T02:49:05;1.07;;;0.53;;
12840;SDS011;6487;48.626;12.486;2023-04-01T02:51:34;1.60;;;0.90;;
12840;SDS011;6487;48.626;12.486;2023-04-01T02:54:04;4.00;;;0.77;;
12840;SDS011;6487;48.626;12.486;2023-04-01T02:56:32;3.20;;;0.80;;
12840;SDS011;6487;48.626;12.486;2023-04-01T02:59:00;0.83;;;0.53;;
12840;SDS011;6487;48.626;12.486;2023-04-01T03:01:29;1.10;;;0.50;;
12840;SDS011;6487;48.626;12.486;2023-04-01T03:03:57;1.83;;;0.70;;
12840;SDS011;6487;48.626;12.486;2023-04-01T03:06:25;3.13;;;0.50;;
12840;SDS011;6487;48.626;12.486;2023-04-01T03:08:54;1.33;;;0.60;;
12840;SDS011;6487;48.626;12.486;2023-04-01T03:11:24;2.20;;;0.70;;
12840;SDS011;6487;48.626;12.486;2023-04-01T03:13:52;0.80;;;0.50;;
12840;SDS011;6487;48.626;12.486;2023-04-01T03:16:20;1.77;;;0.80;;
12840;SDS011;6487;48.626;12.486;2023-04-01T03:18:49;1.80;;;0.63;;
12840;SDS011;6487;48.626;12.486;2023-04-01T03:21:19;2.50;;;0.80;;
12840;SDS011;6487;48.626;12.486;2023-04-01T03:23:49;1.77;;;0.70;;
12840;SDS011;6487;48.626;12.486;2023-04-01T03:26:18;0.83;;;0.50;;
12840;SDS011;6487;48.626;12.486;2023-04-01T03:28:49;1.07;;;0.40;;
12840;SDS011;6487;48.626;12.486;2023-04-01T03:31:17;1.53;;;0.70;;
12840;SDS011;6487;48.626;12.486;2023-04-01T03:33:49;6.30;;;0.80;;
12840;SDS011;6487;48.626;12.486;2023-04-01T03:36:17;0.70;;;0.47;;
12840;SDS011;6487;48.626;12.486;2023-04-01T03:38:46;1.03;;;0.50;;
12840;SDS011;6487;48.626;12.486;2023-04-01T03:41:15;1.47;;;0.50;;
12840;SDS011;6487;48.626;12.486;2023-04-01T03:43:44;1.83;;;0.60;;
12840;SDS011;6487;48.626;12.486;2023-04-01T03:46:17;1.30;;;0.70;;
12840;SDS011;6487;48.626;12.486;2023-04-01T03:48:46;0.50;;;0.37;;
12840;SDS011;6487;48.626;12.486;2023-04-01T03:51:15;3.93;;;0.80;;
12840;SDS011;6487;48.626;12.486;2023-04-01T03:53:43;1.23;;;0.40;;
12840;SDS011;6487;48.626;12.486;2023-04-01T03:56:12;2.10;;;0.50;;
12840;SDS011;6487;48.626;12.486;2023-04-01T03:58:40;0.90;;;0.47;;
12840;SDS011;6487;48.626;12.486;2023-04-01T04:01:20;1.40;;;0.40;;
12840;SDS011;6487;48.626;12.486;2023-04-01T04:03:51;2.53;;;0.50;;
12840;SDS011;6487;48.626;12.486;2023-04-01T04:06:19;1.03;;;0.60;;
12840;SDS011;6487;48.626;12.486;2023-04-01T04:08:48;1.23;;;0.50;;
12840;SDS011;6487;48.626;12.486;2023-04-01T04:11:16;2.33;;;0.47;;
12840;SDS011;6487;48.626;12.486;2023-04-01T04:13:49;1.80;;;0.50;;
12840;SDS011;6487;48.626;12.486;2023-04-01T04:16:19;1.13;;;0.50;;
12840;SDS011;6487;48.626;12.486;2023-04-01T04:18:48;2.70;;;0.40;;
12840;SDS011;6487;48.626;12.486;2023-04-01T04:21:17;1.57;;;0.40;;
12840;SDS011;6487;48.626;12.486;2023-04-01T04:23:45;3.10;;;0.80;;
12840;SDS011;6487;48.626;12.486;2023-04-01T04:26:14;2.23;;;0.60;;
12840;SDS011;6487;48.626;12.486;2023-04-01T04:28:43;1.97;;;0.60;;
12840;SDS011;6487;48.626;12.486;2023-04-01T04:31:12;1.00;;;0.30;;
12840;SDS011;6487;48.626;12.486;2023-04-01T04:33:48;2.40;;;0.80;;
12840;SDS011;6487;48.626;12.486;2023-04-01T04:36:19;1.53;;;0.60;;
12840;SDS011;6487;48.626;12.486;2023-04-01T04:38:48;1.23;;;0.80;;
12840;SDS011;6487;48.626;12.486;2023-04-01T04:41:18;1.47;;;0.80;;
12840;SDS011;6487;48.626;12.486;2023-04-01T04:43:49;3.10;;;1.23;;
12840;SDS011;6487;48.626;12.486;2023-04-01T04:46:20;1.93;;;1.03;;
12840;SDS011;6487;48.626;12.486;2023-04-01T04:48:49;2.33;;;1.50;;
12840;SDS011;6487;48.626;12.486;2023-04-01T04:51:18;1.43;;;1.00;;
12840;SDS011;6487;48.626;12.486;2023-04-01T04:53:49;2.50;;;0.80;;
12840;SDS011;6487;48.626;12.486;2023-04-01T04:56:18;1.67;;;0.50;;
12840;SDS011;6487;48.626;12.486;2023-04-01T04:58:51;0.77;;;0.50;;
12840;SDS011;6487;48.626;12.486;2023-04-01T05:01:21;1.40;;;0.70;;
12840;SDS011;6487;48.626;12.486;2023-04-01T05:03:50;0.80;;;0.57;;
12840;SDS011;6487;48.626;12.486;2023-04-01T05:06:19;0.70;;;0.50;;
12840;SDS011;6487;48.626;12.486;2023-04-01T05:08:49;1.33;;;0.43;;
12840;SDS011;6487;48.626;12.486;2023-04-01T05:11:18;2.53;;;0.67;;
12840;SDS011;6487;48.626;12.486;2023-04-01T05:13:47;2.80;;;0.50;;
12840;SDS011;6487;48.626;12.486;2023-04-01T05:16:17;3.00;;;0.50;;
12840;SDS011;6487;48.626;12.486;2023-04-01T05:18:48;1.67;;;0.43;;
12840;SDS011;6487;48.626;12.486;2023-04-01T05:21:17;1.80;;;0.37;;
12840;SDS011;6487;48.626;12.486;2023-04-01T05:23:45;0.77;;;0.50;;
12840;SDS011;6487;48.626;12.486;2023-04-01T05:26:14;0.90;;;0.60;;
12840;SDS011;6487;48.626;12.486;2023-04-01T05:28:42;0.40;;;0.30;;
12840;SDS011;6487;48.626;12.486;2023-04-01T05:31:11;0.50;;;0.30;;
12840;SDS011;6487;48.626;12.486;2023-04-01T05:33:39;0.60;;;0.20;;
12840;SDS011;6487;48.626;12.486;2023-04-01T05:36:13;0.67;;;0.50;;
12840;SDS011;6487;48.626;12.486;2023-04-01T05:38:43;0.70;;;0.40;;
12840;SDS011;6487;48.626;12.486;2023-04-01T05:41:13;1.17;;;0.40;;
12840;SDS011;6487;48.626;12.486;2023-04-01T05:43:42;0.63;;;0.40;;
12840;SDS011;6487;48.626;12.486;2023-04-01T05:46:10;1.57;;;0.40;;
12840;SDS011;6487;48.626;12.486;2023-04-01T05:48:39;1.43;;;0.60;;
12840;SDS011;6487;48.626;12.486;2023-04-01T05:51:12;1.80;;;0.40;;
12840;SDS011;6487;48.626;12.486;2023-04-01T05:53:45;0.40;;;0.30;;
12840;SDS011;6487;48.626;12.486;2023-04-01T05:56:13;3.40;;;0.60;;
12840;SDS011;6487;48.626;12.486;2023-04-01T05:58:42;0.87;;;0.60;;
12840;SDS011;6487;48.626;12.486;2023-04-01T06:01:13;0.70;;;0.53;;
12840;SDS011;6487;48.626;12.486;2023-04-01T06:03:42;1.40;;;0.83;;
12840;SDS011;6487;48.626;12.486;2023-04-01T06:06:13;1.10;;;0.77;;
12840;SDS011;6487;48.626;12.486;2023-04-01T06:08:43;1.20;;;0.80;;
12840;SDS011;6487;48.626;12.486;2023-04-01T06:11:15;0.60;;;0.60;;
12840;SDS011;6487;48.626;12.486;2023-04-01T06:13:59;1.17;;;0.80;;
12840;SDS011;6487;48.626;12.486;2023-04-01T06:16:40;0.63;;;0.60;;
12840;SDS011;6487;48.626;12.486;2023-04-01T06:19:24;1.00;;;0.60;;
12840;SDS011;6487;48.626;12.486;2023-04-01T06:22:07;1.20;;;0.67;;
12840;SDS011;6487;48.626;12.486;2023-04-01T06:25:22;1.20;;;0.50;;
12840;SDS011;6487;48.626;12.486;2023-04-01T06:28:29;2.70;;;0.90;;
12840;SDS011;6487;48.626;12.486;2023-04-01T06:31:36;1.33;;;0.50;;
12840;SDS011;6487;48.626;12.486;2023-04-01T06:37:52;2.50;;;0.77;;
12840;SDS011;6487;48.626;12.486;2023-04-01T06:40:51;1.00;;;0.60;;
12840;SDS011;6487;48.626;12.486;2023-04-01T06:43:44;1.97;;;1.27;;
12840;SDS011;6487;48.626;12.486;2023-04-01T06:46:25;4.30;;;0.80;;
12840;SDS011;6487;48.626;12.486;2023-04-01T06:49:13;1.20;;;0.60;;
12840;SDS011;6487;48.626;12.486;2023-04-01T06:51:58;1.73;;;0.73;;
12840;SDS011;6487;48.626;12.486;2023-04-01T06:54:38;2.00;;;0.80;;
12840;SDS011;6487;48.626;12.486;2023-04-01T06:57:13;1.50;;;0.80;;
12840;SDS011;6487;48.626;12.486;2023-04-01T06:59:51;2.20;;;0.80;;
12840;SDS011;6487;48.626;12.486;2023-04-01T07:02:25;1.13;;;0.70;;
12840;SDS011;6487;48.626;12.486;2023-04-01T07:05:03;1.27;;;0.73;;
12840;SDS011;6487;48.626;12.486;2023-04-01T07:07:33;2.07;;;0.53;;
12840;SDS011;6487;48.626;12.486;2023-04-01T07:10:11;1.03;;;0.57;;
12840;SDS011;6487;48.626;12.486;2023-04-01T07:12:46;1.50;;;0.50;;
12840;SDS011;6487;48.626;12.486;2023-04-01T07:15:26;0.73;;;0.57;;
12840;SDS011;6487;48.626;12.486;2023-04-01T07:18:02;1.20;;;0.70;;
12840;SDS011;6487;48.626;12.486;2023-04-01T07:20:37;1.33;;;0.50;;
12840;SDS011;6487;48.626;12.486;2023-04-01T07:23:07;1.07;;;0.60;;
12840;SDS011;6487;48.626;12.486;2023-04-01T07:25:46;1.60;;;0.77;;
12840;SDS011;6487;48.626;12.486;2023-04-01T07:28:19;2.03;;;0.50;;
12840;SDS011;6487;48.626;12.486;2023-04-01T07:30:51;2.17;;;0.50;;
12840;SDS011;6487;48.626;12.486;2023-04-01T07:33:32;1.57;;;0.80;;
12840;SDS011;6487;48.626;12.486;2023-04-01T07:36:08;0.80;;;0.60;;
12840;SDS011;6487;48.626;12.486;2023-04-01T07:38:46;1.50;;;0.73;;
12840;SDS011;6487;48.626;12.486;2023-04-01T07:41:29;1.20;;;0.73;;
12840;SDS011;6487;48.626;12.486;2023-04-01T07:44:10;1.37;;;0.50;;
12840;SDS011;6487;48.626;12.486;2023-04-01T07:46:57;0.80;;;0.50;;
12840;SDS011;6487;48.626;12.486;2023-04-01T07:49:37;0.93;;;0.60;;
12840;SDS011;6487;48.626;12.486;2023-04-01T07:52:21;1.67;;;0.60;;
12840;SDS011;6487;48.626;12.486;2023-04-01T07:55:02;3.40;;;0.60;;
12840;SDS011;6487;48.626;12.486;2023-04-01T07:57:43;2.63;;;0.80;;
12840;SDS011;6487;48.626;12.486;2023-04-01T08:00:19;1.73;;;0.97;;
12840;SDS011;6487;48.626;12.486;2023-04-01T08:02:56;1.33;;;0.77;;
12840;SDS011;6487;48.626;12.486;2023-04-01T08:05:49;1.50;;;0.60;;
12840;SDS011;6487;48.626;12.486;2023-04-01T08:08:26;2.57;;;0.73;;
12840;SDS011;6487;48.626;12.486;2023-04-01T08:11:09;1.67;;;0.80;;
12840;SDS011;6487;48.626;12.486;2023-04-01T08:13:48;1.37;;;0.60;;
12840;SDS011;6487;48.626;12.486;2023-04-01T08:16:26;1.33;;;0.70;;
12840;SDS011;6487;48.626;12.486;2023-04-01T08:19:04;1.97;;;0.80;;
12840;SDS011;6487;48.626;12.486;2023-04-01T08:21:45;2.43;;;0.90;;
12840;SDS011;6487;48.626;12.486;2023-04-01T08:24:19;3.87;;;0.80;;
12840;SDS011;6487;48.626;12.486;2023-04-01T08:27:12;2.73;;;0.63;;
12840;SDS011;6487;48.626;12.486;2023-04-01T08:29:56;1.77;;;0.70;;
12840;SDS011;6487;48.626;12.486;2023-04-01T08:32:32;0.80;;;0.60;;
12840;SDS011;6487;48.626;12.486;2023-04-01T08:35:07;1.37;;;0.70;;
12840;SDS011;6487;48.626;12.486;2023-04-01T08:37:43;1.20;;;0.70;;
12840;SDS011;6487;48.626;12.486;2023-04-01T08:40:26;0.80;;;0.70;;
12840;SDS011;6487;48.626;12.486;2023-04-01T08:43:15;2.37;;;0.70;;
12840;SDS011;6487;48.626;12.486;2023-04-01T08:45:59;0.97;;;0.63;;
12840;SDS011;6487;48.626;12.486;2023-04-01T08:49:01;0.93;;;0.50;;
12840;SDS011;6487;48.626;12.486;2023-04-01T08:55:00;1.90;;;0.70;;
12840;SDS011;6487;48.626;12.486;2023-04-01T08:57:56;1.33;;;0.77;;
12840;SDS011;6487;48.626;12.486;2023-04-01T09:01:07;1.40;;;0.60;;
12840;SDS011;6487;48.626;12.486;2023-04-01T09:04:13;1.23;;;0.57;;
12840;SDS011;6487;48.626;12.486;2023-04-01T09:06:57;0.80;;;0.53;;
12840;SDS011;6487;48.626;12.486;2023-04-01T09:09:45;1.10;;;0.70;;
12840;SDS011;6487;48.626;12.486;2023-04-01T09:12:42;0.97;;;0.60;;
12840;SDS011;6487;48.626;12.486;2023-04-01T09:15:56;3.50;;;0.70;;
12840;SDS011;6487;48.626;12.486;2023-04-01T09:21:57;1.00;;;0.60;;
12840;SDS011;6487;48.626;12.486;2023-04-01T09:25:00;2.93;;;0.50;;
12840;SDS011;6487;48.626;12.486;2023-04-01T09:27:49;2.90;;;0.50;;
12840;SDS011;6487;48.626;12.486;2023-04-01T09:30:38;1.03;;;0.63;;
12840;SDS011;6487;48.626;12.486;2023-04-01T09:33:54;1.43;;;0.60;;
12840;SDS011;6487;48.626;12.486;2023-04-01T09:37:10;1.13;;;0.40;;
12840;SDS011;6487;48.626;12.486;2023-04-01T09:40:02;1.53;;;0.50;;
12840;SDS011;6487;48.626;12.486;2023-04-01T09:42:57;0.63;;;0.40;;
12840;SDS011;6487;48.626;12.486;2023-04-01T09:45:47;1.23;;;0.40;;
12840;SDS011;6487;48.626;12.486;2023-04-01T09:48:33;1.57;;;0.70;;
12840;SDS011;6487;48.626;12.486;2023-04-01T09:51:26;0.97;;;0.50;;
12840;SDS011;6487;48.626;12.486;2023-04-01T09:54:08;1.07;;;0.60;;
12840;SDS011;6487;48.626;12.486;2023-04-01T09:57:18;0.77;;;0.40;;
12840;SDS011;6487;48.626;12.486;2023-04-01T10:00:27;0.67;;;0.40;;
12840;SDS011;6487;48.626;12.486;2023-04-01T10:03:18;2.43;;;0.70;;
12840;SDS011;6487;48.626;12.486;2023-04-01T10:10:05;0.60;;;0.43;;
12840;SDS011;6487;48.626;12.486;2023-04-01T10:16:13;1.90;;;0.50;;
12840;SDS011;6487;48.626;12.486;2023-04-01T10:19:12;1.60;;;0.60;;
12840;SDS011;6487;48.626;12.486;2023-04-01T10:25:38;0.80;;;0.60;;
12840;SDS011;6487;48.626;12.486;2023-04-01T10:28:35;1.13;;;0.53;;
12840;SDS011;6487;48.626;12.486;2023-04-01T10:31:38;1.07;;;0.40;;
12840;SDS011;6487;48.626;12.486;2023-04-01T10:38:11;0.50;;;0.50;;
12840;SDS011;6487;48.626;12.486;2023-04-01T10:41:25;0.37;;;0.37;;
12840;SDS011;6487;48.626;12.486;2023-04-01T10:47:57;0.73;;;0.50;;
12840;SDS011;6487;48.626;12.486;2023-04-01T10:53:58;0.50;;;0.30;;
12840;SDS011;6487;48.626;12.486;2023-04-01T10:56:53;0.80;;;0.40;;
12840;SDS011;6487;48.626;12.486;2023-04-01T11:02:57;1.17;;;0.43;;
12840;SDS011;6487;48.626;12.486;2023-04-01T11:09:33;1.37;;;0.67;;
12840;SDS011;6487;48.626;12.486;2023-04-01T11:13:00;1.10;;;0.90;;
12840;SDS011;6487;48.626;12.486;2023-04-01T11:19:43;0.80;;;0.70;;
12840;SDS011;6487;48.626;12.486;2023-04-01T11:26:00;1.13;;;0.60;;
12840;SDS011;6487;48.626;12.486;2023-04-01T11:28:43;1.27;;;0.80;;
12840;SDS011;6487;48.626;12.486;2023-04-01T11:32:07;0.97;;;0.60;;
12840;SDS011;6487;48.626;12.486;2023-04-01T11:34:57;0.97;;;0.60;;
12840;SDS011;6487;48.626;12.486;2023-04-01T11:37:52;1.47;;;0.40;;
12840;SDS011;6487;48.626;12.486;2023-04-01T11:40:27;0.70;;;0.50;;
12840;SDS011;6487;48.626;12.486;2023-04-01T11:43:06;0.70;;;0.70;;
12840;SDS011;6487;48.626;12.486;2023-04-01T11:46:00;1.27;;;0.87;;
12840;SDS011;6487;48.626;12.486;2023-04-01T11:51:34;1.00;;;0.50;;
12840;SDS011;6487;48.626;12.486;2023-04-01T11:54:40;1.13;;;1.03;;
12840;SDS011;6487;48.626;12.486;2023-04-01T11:57:51;1.13;;;1.00;;
12840;SDS011;6487;48.626;12.486;2023-04-01T12:00:59;1.33;;;0.90;;
12840;SDS011;6487;48.626;12.486;2023-04-01T12:04:00;0.50;;;0.50;;
12840;SDS011;6487;48.626;12.486;2023-04-01T12:07:13;0.50;;;0.40;;
12840;SDS011;6487;48.626;12.486;2023-04-01T12:09:53;1.60;;;0.60;;
12840;SDS011;6487;48.626;12.486;2023-04-01T12:12:34;1.70;;;0.40;;
12840;SDS011;6487;48.626;12.486;2023-04-01T12:15:25;0.60;;;0.60;;
12840;SDS011;6487;48.626;12.486;2023-04-01T12:18:05;0.60;;;0.50;;
12840;SDS011;6487;48.626;12.486;2023-04-01T12:20:46;0.30;;;0.30;;
12840;SDS011;6487;48.626;12.486;2023-04-01T12:26:39;0.70;;;0.50;;
12840;SDS011;6487;48.626;12.486;2023-04-01T12:32:20;0.30;;;0.30;;
12840;SDS011;6487;48.626;12.486;2023-04-01T12:35:05;0.30;;;0.30;;
12840;SDS011;6487;48.626;12.486;2023-04-01T12:37:49;0.37;;;0.30;;
12840;SDS011;6487;48.626;12.486;2023-04-01T12:40:37;0.50;;;0.40;;
12840;SDS011;6487;48.626;12.486;2023-04-01T12:46:39;0.53;;;0.40;;
12840;SDS011;6487;48.626;12.486;2023-04-01T12:52:47;0.60;;;0.40;;
12840;SDS011;6487;48.626;12.486;2023-04-01T12:55:38;0.30;;;0.20;;
12840;SDS011;6487;48.626;12.486;2023-04-01T13:01:25;0.40;;;0.30;;
12840;SDS011;6487;48.626;12.486;2023-04-01T13:04:20;0.60;;;0.30;;
12840;SDS011;6487;48.626;12.486;2023-04-01T13:07:43;0.87;;;0.40;;
12840;SDS011;6487;48.626;12.486;2023-04-01T13:10:26;0.30;;;0.30;;
12840;SDS011;6487;48.626;12.486;2023-04-01T13:16:06;0.40;;;0.20;;
12840;SDS011;6487;48.626;12.486;2023-04-01T13:18:39;0.73;;;0.30;;
12840;SDS011;6487;48.626;12.486;2023-04-01T13:21:27;0.40;;;0.30;;
12840;SDS011;6487;48.626;12.486;2023-04-01T13:24:09;0.50;;;0.40;;
12840;SDS011;6487;48.626;12.486;2023-04-01T13:26:54;0.40;;;0.40;;
12840;SDS011;6487;48.626;12.486;2023-04-01T13:29:28;0.30;;;0.30;;
12840;SDS011;6487;48.626;12.486;2023-04-01T13:32:10;0.50;;;0.30;;
12840;SDS011;6487;48.626;12.486;2023-04-01T13:35:15;0.30;;;0.20;;
12840;SDS011;6487;48.626;12.486;2023-04-01T13:37:59;0.40;;;0.27;;
12840;SDS011;6487;48.626;12.486;2023-04-01T13:40:44;0.40;;;0.30;;
12840;SDS011;6487;48.626;12.486;2023-04-01T13:43:30;0.30;;;0.23;;
12840;SDS011;6487;48.626;12.486;2023-04-01T13:46:09;0.60;;;0.40;;
12840;SDS011;6487;48.626;12.486;2023-04-01T13:49:12;1.60;;;0.37;;
12840;SDS011;6487;48.626;12.486;2023-04-01T13:52:05;0.50;;;0.50;;
12840;SDS011;6487;48.626;12.486;2023-04-01T13:55:07;0.50;;;0.30;;
12840;SDS011;6487;48.626;12.486;2023-04-01T13:58:13;0.30;;;0.20;;
12840;SDS011;6487;48.626;12.486;2023-04-01T14:01:06;0.30;;;0.30;;
12840;SDS011;6487;48.626;12.486;2023-04-01T14:03:43;0.47;;;0.30;;
12840;SDS011;6487;48.626;12.486;2023-04-01T14:07:00;0.60;;;0.50;;
12840;SDS011;6487;48.626;12.486;2023-04-01T14:12:42;0.40;;;0.40;;
12840;SDS011;6487;48.626;12.486;2023-04-01T14:15:25;0.80;;;0.50;;
12840;SDS011;6487;48.626;12.486;2023-04-01T14:18:20;0.50;;;0.30;;
12840;SDS011;6487;48.626;12.486;2023-04-01T14:21:17;0.60;;;0.30;;
12840;SDS011;6487;48.626;12.486;2023-04-01T14:24:07;0.80;;;0.43;;
12840;SDS011;6487;48.626;12.486;2023-04-01T14:27:00;0.63;;;0.60;;
12840;SDS011;6487;48.626;12.486;2023-04-01T14:29:57;0.87;;;0.87;;
12840;SDS011;6487;48.626;12.486;2023-04-01T14:33:01;0.40;;;0.40;;
12840;SDS011;6487;48.626;12.486;2023-04-01T14:35:46;1.60;;;1.33;;
12840;SDS011;6487;48.626;12.486;2023-04-01T14:38:27;3.80;;;3.27;;
12840;SDS011;6487;48.626;12.486;2023-04-01T14:41:20;6.30;;;4.37;;
12840;SDS011;6487;48.626;12.486;2023-04-01T14:44:11;9.03;;;6.73;;
12840;SDS011;6487;48.626;12.486;2023-04-01T14:50:06;1.60;;;0.90;;
12840;SDS011;6487;48.626;12.486;2023-04-01T14:52:40;0.70;;;0.70;;
12840;SDS011;6487;48.626;12.486;2023-04-01T14:55:25;1.50;;;0.93;;
12840;SDS011;6487;48.626;12.486;2023-04-01T14:58:04;0.83;;;0.60;;
12840;SDS011;6487;48.626;12.486;2023-04-01T15:00:48;0.50;;;0.50;;
12840;SDS011;6487;48.626;12.486;2023-04-01T15:03:29;0.43;;;0.43;;
12840;SDS011;6487;48.626;12.486;2023-04-01T15:09:10;0.50;;;0.50;;
12840;SDS011;6487;48.626;12.486;2023-04-01T15:11:48;0.60;;;0.50;;
12840;SDS011;6487;48.626;12.486;2023-04-01T15:14:40;0.60;;;0.50;;
12840;SDS011;6487;48.626;12.486;2023-04-01T15:20:46;0.93;;;0.50;;
12840;SDS011;6487;48.626;12.486;2023-04-01T15:23:30;0.50;;;0.40;;
12840;SDS011;6487;48.626;12.486;2023-04-01T15:26:13;0.50;;;0.50;;
12840;SDS011;6487;48.626;12.486;2023-04-01T15:28:56;0.70;;;0.70;;
12840;SDS011;6487;48.626;12.486;2023-04-01T15:31:39;3.00;;;2.23;;
12840;SDS011;6487;48.626;12.486;2023-04-01T15:34:17;0.70;;;0.70;;
12840;SDS011;6487;48.626;12.486;2023-04-01T15:36:58;0.60;;;0.50;;
12840;SDS011;6487;48.626;12.486;2023-04-01T15:39:42;1.03;;;0.63;;
12840;SDS011;6487;48.626;12.486;2023-04-01T15:42:25;1.40;;;0.70;;
12840;SDS011;6487;48.626;12.486;2023-04-01T15:45:12;0.73;;;0.57;;
12840;SDS011;6487;48.626;12.486;2023-04-01T15:48:01;0.80;;;0.60;;
12840;SDS011;6487;48.626;12.486;2023-04-01T15:50:54;1.47;;;0.80;;
12840;SDS011;6487;48.626;12.486;2023-04-01T15:53:40;1.17;;;0.60;;
12840;SDS011;6487;48.626;12.486;2023-04-01T15:56:24;0.70;;;0.70;;
12840;SDS011;6487;48.626;12.486;2023-04-01T15:59:11;1.73;;;1.30;;
12840;SDS011;6487;48.626;12.486;2023-04-01T16:01:55;2.37;;;1.67;;
12840;SDS011;6487;48.626;12.486;2023-04-01T16:04:42;0.70;;;0.70;;
12840;SDS011;6487;48.626;12.486;2023-04-01T16:07:20;1.57;;;1.40;;
12840;SDS011;6487;48.626;12.486;2023-04-01T16:10:33;1.10;;;0.80;;
12840;SDS011;6487;48.626;12.486;2023-04-01T16:13:17;1.07;;;0.60;;
12840;SDS011;6487;48.626;12.486;2023-04-01T16:15:58;1.40;;;1.30;;
12840;SDS011;6487;48.626;12.486;2023-04-01T16:18:42;0.93;;;0.83;;
12840;SDS011;6487;48.626;12.486;2023-04-01T16:21:35;0.93;;;0.80;;
12840;SDS011;6487;48.626;12.486;2023-04-01T16:24:13;0.83;;;0.70;;
12840;SDS011;6487;48.626;12.486;2023-04-01T16:26:50;1.17;;;1.07;;
12840;SDS011;6487;48.626;12.486;2023-04-01T16:29:26;1.77;;;1.03;;
12840;SDS011;6487;48.626;12.486;2023-04-01T16:32:12;0.77;;;0.77;;
12840;SDS011;6487;48.626;12.486;2023-04-01T16:34:58;0.57;;;0.57;;
12840;SDS011;6487;48.626;12.486;2023-04-01T16:37:49;0.70;;;0.60;;
12840;SDS011;6487;48.626;12.486;2023-04-01T16:40:24;0.77;;;0.77;;
12840;SDS011;6487;48.626;12.486;2023-04-01T16:43:10;1.07;;;0.90;;
12840;SDS011;6487;48.626;12.486;2023-04-01T16:45:51;1.00;;;1.00;;
12840;SDS011;6487;48.626;12.486;2023-04-01T16:48:45;2.23;;;1.60;;
12840;SDS011;6487;48.626;12.486;2023-04-01T16:51:36;0.80;;;0.80;;
12840;SDS011;6487;48.626;12.486;2023-04-01T16:54:14;1.10;;;1.00;;
12840;SDS011;6487;48.626;12.486;2023-04-01T16:56:56;0.80;;;0.60;;
12840;SDS011;6487;48.626;12.486;2023-04-01T16:59:45;0.70;;;0.70;;
12840;SDS011;6487;48.626;12.486;2023-04-01T17:02:24;0.80;;;0.80;;
12840;SDS011;6487;48.626;12.486;2023-04-01T17:04:58;0.83;;;0.70;;
12840;SDS011;6487;48.626;12.486;2023-04-01T17:07:35;2.33;;;1.00;;
12840;SDS011;6487;48.626;12.486;2023-04-01T17:10:25;2.80;;;2.40;;
12840;SDS011;6487;48.626;12.486;2023-04-01T17:13:17;4.10;;;3.30;;
12840;SDS011;6487;48.626;12.486;2023-04-01T17:16:04;3.87;;;3.50;;
12840;SDS011;6487;48.626;12.486;2023-04-01T17:18:59;5.27;;;4.77;;
12840;SDS011;6487;48.626;12.486;2023-04-01T17:21:45;2.93;;;2.57;;
12840;SDS011;6487;48.626;12.486;2023-04-01T17:24:26;2.60;;;1.40;;
12840;SDS011;6487;48.626;12.486;2023-04-01T17:27:13;1.77;;;1.60;;
12840;SDS011;6487;48.626;12.486;2023-04-01T17:30:02;1.60;;;1.50;;
12840;SDS011;6487;48.626;12.486;2023-04-01T17:32:47;0.70;;;0.70;;